Time;durP1;ratioP1;P1;durP2;ratioP2;P2;SDS_P1;SDS_P2;PMS_P1;PMS_P2;Temp;Humidity;BMP_temperature;BMP_pressure;BME280_temperature;BME280_humidity;BME280_pressure;Samples;Min_cycle;Max_cycle;Signal;HPM_P1;HPM_P2
2021/08/24 04:45:22;;;;;;;9.40;7.18;;;;;;;13.71;85.69;100392.06;5008985;28;106006;-62
2021/08/24 04:47:47;;;;;;;11.30;7.10;;;;;;;13.77;85.91;100397.69;5005688;28;105875;-63
2021/08/24 04:50:13;;;;;;;8.85;7.40;;;;;;;13.82;86.03;100403.31;5004842;28;106191;-62
2021/08/24 04:52:38;;;;;;;10.85;8.07;;;;;;;13.87;86.16;100406.25;5004874;28;105958;-65
2021/08/24 04:55:04;;;;;;;8.15;6.13;;;;;;;13.96;86.41;100409.69;5004676;28;106069;-63
2021/08/24 04:57:29;;;;;;;10.57;7.50;;;;;;;14.01;86.23;100415.28;5005726;28;105966;-65
2021/08/24 04:59:54;;;;;;;9.23;5.93;;;;;;;14.07;86.23;100414.53;5005099;28;105858;-65
2021/08/24 05:02:20;;;;;;;11.65;7.68;;;;;;;14.13;86.37;100415.63;5004973;28;106799;-64
2021/08/24 05:04:46;;;;;;;7.68;6.65;;;;;;;14.19;86.36;100420.25;5004955;28;105891;-64
2021/08/24 05:07:11;;;;;;;10.93;7.60;;;;;;;14.24;86.52;100423.19;5005569;28;106119;-65
2021/08/24 05:09:37;;;;;;;10.90;7.38;;;;;;;14.31;86.16;100412.53;5005203;28;106167;-64
2021/08/24 05:12:03;;;;;;;11.57;6.97;;;;;;;14.34;86.17;100429.09;5004242;28;106036;-63
2021/08/24 05:14:29;;;;;;;9.65;7.13;;;;;;;14.35;86.14;100419.19;5004564;28;105970;-63
2021/08/24 05:16:58;;;;;;;7.43;6.30;;;;;;;14.37;86.14;100427.88;5003522;28;106061;-65
2021/08/24 05:19:24;;;;;;;7.78;6.82;;;;;;;14.40;86.07;100427.50;5003337;28;105991;-65
2021/08/24 05:21:50;;;;;;;7.03;6.20;;;;;;;14.43;85.89;100435.16;5003826;28;106913;-64
2021/08/24 05:24:16;;;;;;;9.68;7.13;;;;;;;14.46;85.85;100437.47;5004388;28;105946;-65
2021/08/24 05:26:41;;;;;;;7.45;6.43;;;;;;;14.49;85.60;100436.22;5005372;28;105952;-64
2021/08/24 05:29:07;;;;;;;11.63;6.53;;;;;;;14.52;85.55;100444.72;5004729;28;106169;-66
2021/08/24 05:31:33;;;;;;;9.02;6.97;;;;;;;14.54;85.49;100458.78;5004429;28;106567;-67
2021/08/24 05:33:58;;;;;;;7.78;5.63;;;;;;;14.54;85.52;100450.75;5004140;28;105922;-66
2021/08/24 05:36:24;;;;;;;7.60;6.28;;;;;;;14.55;85.31;100460.44;5005306;28;105847;-66
2021/08/24 05:38:49;;;;;;;8.60;6.10;;;;;;;14.55;85.38;100468.47;5004629;28;106098;-65
2021/08/24 05:41:15;;;;;;;8.60;5.32;;;;;;;14.55;85.29;100464.97;5004359;28;105844;-65
2021/08/24 05:43:40;;;;;;;9.40;6.53;;;;;;;14.54;85.25;100471.34;5004216;28;106051;-64
2021/08/24 05:46:12;;;;;;;7.43;5.78;;;;;;;14.51;85.02;100472.56;5004749;28;106020;-65
2021/08/24 05:48:38;;;;;;;8.45;6.13;;;;;;;14.51;85.21;100480.59;5004373;28;106198;-66
2021/08/24 05:51:18;;;;;;;9.38;6.13;;;;;;;14.52;85.01;100476.91;5003714;28;105791;-64
2021/08/24 05:53:44;;;;;;;12.00;6.85;;;;;;;14.55;85.04;100494.47;5003937;28;106041;-65
2021/08/24 05:56:14;;;;;;;9.00;6.50;;;;;;;14.59;85.29;100494.94;4994389;28;106121;-66
2021/08/24 05:58:40;;;;;;;8.50;5.75;;;;;;;14.61;84.85;100499.09;4990601;28;106139;-66
2021/08/24 06:01:07;;;;;;;12.05;6.43;;;;;;;14.65;85.38;100504.91;4990407;28;106662;-66
2021/08/24 06:03:33;;;;;;;7.80;6.03;;;;;;;14.67;85.08;100505.56;4990211;28;106125;-65
2021/08/24 06:05:59;;;;;;;7.65;5.68;;;;;;;14.70;85.14;100510.53;4990817;28;106680;-66
2021/08/24 06:08:26;;;;;;;8.77;5.75;;;;;;;14.77;85.20;100511.44;4990759;28;106245;-66
2021/08/24 06:10:51;;;;;;;7.57;5.63;;;;;;;14.84;84.94;100519.56;4990348;28;106053;-65
2021/08/24 06:13:17;;;;;;;10.70;6.03;;;;;;;14.90;85.09;100518.81;4989852;28;106145;-66
2021/08/24 06:15:42;;;;;;;8.82;5.00;;;;;;;14.99;84.97;100517.63;4990424;28;106194;-64
2021/08/24 06:18:07;;;;;;;5.75;4.55;;;;;;;15.08;84.92;100537.13;4990118;28;106892;-64
2021/08/24 06:20:33;;;;;;;7.68;5.15;;;;;;;15.14;85.04;100530.16;4989819;28;106066;-65
2021/08/24 06:22:58;;;;;;;8.05;5.03;;;;;;;15.21;84.90;100537.28;4990279;28;105926;-65
2021/08/24 06:25:24;;;;;;;7.75;5.22;;;;;;;15.29;84.83;100544.34;4990819;28;106066;-64
2021/08/24 06:27:50;;;;;;;6.93;5.07;;;;;;;15.33;84.23;100547.47;4990200;28;106602;-64
2021/08/24 06:30:17;;;;;;;9.30;4.78;;;;;;;15.38;84.31;100548.56;4990124;28;105913;-65
2021/08/24 06:32:47;;;;;;;7.45;4.68;;;;;;;15.46;84.61;100552.97;4990385;28;105905;-64
2021/08/24 06:35:13;;;;;;;10.48;5.00;;;;;;;15.56;84.65;100556.13;4991103;28;106004;-65
2021/08/24 06:37:38;;;;;;;7.75;5.47;;;;;;;15.64;84.32;100562.41;4990473;28;106253;-65
2021/08/24 06:40:05;;;;;;;7.60;4.80;;;;;;;15.66;83.69;100569.22;4990204;28;106795;-66
2021/08/24 06:42:49;;;;;;;7.95;5.10;;;;;;;15.69;83.73;100568.00;4989882;28;106060;-67
2021/08/24 06:45:24;;;;;;;5.70;4.70;;;;;;;15.69;83.85;100576.06;4990714;28;106932;-67
2021/08/24 06:47:49;;;;;;;6.20;4.72;;;;;;;15.66;83.58;100576.47;4988668;28;106036;-67
2021/08/24 06:50:15;;;;;;;6.10;4.40;;;;;;;15.64;83.22;100573.97;4989474;28;106003;-66
2021/08/24 06:52:40;;;;;;;5.60;4.75;;;;;;;15.65;83.14;100580.16;4989762;28;107067;-66
2021/08/24 06:55:08;;;;;;;6.78;4.88;;;;;;;15.66;83.28;100588.03;4990943;28;106473;-66
2021/08/24 06:57:34;;;;;;;10.63;6.00;;;;;;;15.69;83.04;100584.13;4990184;28;106219;-67
2021/08/24 06:59:59;;;;;;;8.02;4.93;;;;;;;15.74;83.40;100589.75;4989454;28;105930;-70
2021/08/24 07:02:24;;;;;;;9.10;4.88;;;;;;;15.83;83.24;100593.19;4989029;28;113567;-66
2021/08/24 07:04:49;;;;;;;7.10;5.15;;;;;;;15.94;83.37;100594.47;4989444;28;105986;-65
2021/08/24 07:07:16;;;;;;;7.78;5.03;;;;;;;16.02;83.21;100594.31;4988287;28;106283;-66
2021/08/24 07:09:41;;;;;;;7.65;5.10;;;;;;;16.06;83.31;100592.91;4989171;28;106002;-66
2021/08/24 07:12:07;;;;;;;10.52;6.53;;;;;;;16.10;83.03;100596.84;4989155;28;105965;-68
2021/08/24 07:14:32;;;;;;;11.10;6.28;;;;;;;16.15;82.72;100607.03;4987594;28;106460;-65
2021/08/24 07:16:57;;;;;;;8.73;5.30;;;;;;;16.22;82.99;100603.38;4969639;28;106018;-67
2021/08/24 07:19:23;;;;;;;7.22;5.15;;;;;;;16.34;82.86;100610.88;4969609;28;105932;-67
2021/08/24 07:21:48;;;;;;;9.35;6.13;;;;;;;16.44;82.74;100616.69;4969385;28;106254;-67
2021/08/24 07:24:13;;;;;;;6.00;4.68;;;;;;;16.63;82.82;100615.16;4970420;28;106056;-65
2021/08/24 07:26:39;;;;;;;8.48;6.05;;;;;;;16.79;82.39;100630.13;4969804;28;106608;-65
2021/08/24 07:29:04;;;;;;;8.55;5.20;;;;;;;16.89;81.83;100625.25;4969517;28;105898;-65
2021/08/24 07:31:33;;;;;;;10.52;6.63;;;;;;;16.90;81.37;100626.88;4968952;28;106317;-67
2021/08/24 07:33:58;;;;;;;10.63;6.32;;;;;;;16.95;81.05;100633.53;4969455;28;106099;-63
2021/08/24 07:36:24;;;;;;;6.90;5.53;;;;;;;16.94;80.93;100634.56;4968394;28;106205;-67
2021/08/24 07:38:49;;;;;;;9.15;5.93;;;;;;;16.85;80.64;100640.09;4968625;28;106020;-67
2021/08/24 07:41:14;;;;;;;10.40;6.78;;;;;;;16.77;80.33;100645.63;4968337;28;108609;-65
2021/08/24 07:43:40;;;;;;;9.02;6.53;;;;;;;16.67;80.27;100653.25;4968920;28;106001;-66
2021/08/24 07:46:06;;;;;;;10.98;6.07;;;;;;;16.58;80.47;100652.59;4968719;28;106727;-66
2021/08/24 07:48:32;;;;;;;9.63;5.97;;;;;;;16.51;80.59;100655.25;4968898;28;105928;-66
2021/08/24 07:51:01;;;;;;;6.88;5.60;;;;;;;16.42;80.38;100664.50;4968297;28;106020;-68
2021/08/24 07:53:26;;;;;;;7.10;5.20;;;;;;;16.32;80.32;100658.63;4969578;28;105913;-66
2021/08/24 07:55:51;;;;;;;6.68;4.93;;;;;;;16.26;80.67;100667.47;4968977;28;106347;-65
2021/08/24 07:58:17;;;;;;;6.57;4.57;;;;;;;16.22;80.36;100673.25;4968644;28;105776;-67
2021/08/24 08:00:42;;;;;;;8.15;4.82;;;;;;;16.16;80.06;100674.03;4969057;28;106281;-66
2021/08/24 08:03:08;;;;;;;9.18;5.00;;;;;;;16.13;80.32;100673.56;4969648;28;106128;-65
2021/08/24 08:05:33;;;;;;;6.53;4.53;;;;;;;16.16;80.40;100678.59;4969121;28;106192;-66
2021/08/24 08:07:59;;;;;;;8.73;4.68;;;;;;;16.16;80.47;100684.78;4968343;28;106418;-66
2021/08/24 08:10:25;;;;;;;5.47;3.97;;;;;;;16.25;80.48;100682.75;4968673;28;106115;-66
2021/08/24 08:12:50;;;;;;;6.70;4.88;;;;;;;16.29;80.24;100684.03;4969486;28;106139;-66
2021/08/24 08:15:17;;;;;;;5.90;3.80;;;;;;;16.38;80.06;100687.41;4968934;28;106263;-65
2021/08/24 08:17:42;;;;;;;12.90;5.50;;;;;;;16.34;79.39;100686.97;4968438;28;106619;-65
2021/08/24 08:20:08;;;;;;;6.40;4.43;;;;;;;16.36;79.88;100689.47;4968359;28;106401;-66
2021/08/24 08:22:35;;;;;;;7.35;3.60;;;;;;;16.38;79.73;100690.09;4969353;28;106237;-66
2021/08/24 08:25:00;;;;;;;7.70;3.55;;;;;;;16.38;79.57;100698.16;4968615;28;106055;-67
2021/08/24 08:27:26;;;;;;;7.88;3.58;;;;;;;16.37;79.62;100709.94;4968705;28;106076;-66
2021/08/24 08:29:51;;;;;;;5.85;3.55;;;;;;;16.40;79.39;100712.22;4968237;28;106156;-65
2021/08/24 08:32:22;;;;;;;6.78;3.72;;;;;;;16.43;79.54;100711.88;4969467;28;105928;-64
2021/08/24 08:34:48;;;;;;;4.88;3.03;;;;;;;16.51;79.21;100713.56;4968630;28;106060;-67
2021/08/24 08:37:14;;;;;;;5.00;3.28;;;;;;;16.61;79.29;100713.19;4968902;28;105999;-65
2021/08/24 08:39:39;;;;;;;6.07;3.45;;;;;;;16.64;79.17;100716.34;4968279;28;106108;-66
2021/08/24 08:42:05;;;;;;;4.80;3.22;;;;;;;16.68;79.20;100727.53;4969464;28;105996;-66
2021/08/24 08:44:43;;;;;;;5.88;3.47;;;;;;;16.63;78.52;100727.28;4968283;28;106225;-64
2021/08/24 08:47:27;;;;;;;7.10;3.60;;;;;;;16.62;78.73;100720.25;4968370;28;105912;-64
2021/08/24 08:49:58;;;;;;;8.15;3.90;;;;;;;16.72;78.73;100731.50;4967935;28;106294;-64
2021/08/24 08:52:51;;;;;;;6.78;2.85;;;;;;;16.81;78.67;100729.47;4969001;28;105885;-65
2021/08/24 08:55:50;;;;;;;6.25;3.30;;;;;;;16.97;78.94;100731.03;4968065;28;106033;-66
2021/08/24 08:58:40;;;;;;;8.38;4.18;;;;;;;16.98;78.20;100740.78;4968088;28;105998;-65
2021/08/24 09:01:22;;;;;;;5.45;3.42;;;;;;;16.85;77.81;100742.34;4967234;28;105839;-66
2021/08/24 09:03:53;;;;;;;6.63;4.10;;;;;;;16.86;77.92;100756.63;4967763;28;106070;-64
2021/08/24 09:06:24;;;;;;;8.77;4.93;;;;;;;16.99;78.14;100742.44;4967882;28;105949;-65
2021/08/24 09:08:51;;;;;;;9.48;4.43;;;;;;;17.23;78.19;100749.19;4967142;28;106316;-64
2021/08/24 09:11:27;;;;;;;7.85;3.58;;;;;;;17.64;78.39;100750.16;4967129;28;106251;-67
2021/08/24 09:14:03;;;;;;;6.60;4.20;;;;;;;18.09;78.03;100753.16;4967971;28;106033;-66
2021/08/24 09:16:36;;;;;;;8.75;4.45;;;;;;;18.24;77.17;100756.47;4967852;28;106364;-65
2021/08/24 09:19:14;;;;;;;6.00;3.97;;;;;;;18.23;76.26;100759.38;4967725;28;105907;-65
2021/08/24 09:21:42;;;;;;;6.13;3.97;;;;;;;18.21;75.83;100756.06;4967153;28;105877;-65
2021/08/24 09:24:23;;;;;;;7.60;3.97;;;;;;;18.22;75.88;100763.97;4967888;28;106060;-65
2021/08/24 09:27:14;;;;;;;5.78;3.50;;;;;;;18.34;76.06;100760.63;4967747;28;106461;-66
2021/08/24 09:29:44;;;;;;;6.07;3.88;;;;;;;18.46;75.03;100763.53;4964054;28;106621;-67
2021/08/24 09:32:12;;;;;;;9.98;5.13;;;;;;;18.47;74.94;100774.13;4970016;28;106104;-66
2021/08/24 09:34:41;;;;;;;9.35;5.60;;;;;;;18.42;74.51;100765.81;4971301;28;105954;-65
2021/08/24 09:37:08;;;;;;;9.95;5.35;;;;;;;18.31;74.30;100771.84;4969992;28;106276;-65
2021/08/24 09:39:58;;;;;;;11.45;4.30;;;;;;;18.16;74.11;100769.34;4970497;28;106072;-65
2021/08/24 09:42:46;;;;;;;7.43;4.63;;;;;;;17.97;74.05;100769.09;4970551;28;105787;-66
2021/08/24 09:45:20;;;;;;;8.05;4.47;;;;;;;17.81;73.71;100772.16;4971165;28;106193;-66
2021/08/24 09:47:55;;;;;;;11.15;5.35;;;;;;;17.70;73.74;100768.19;4970903;28;106805;-67
2021/08/24 09:50:24;;;;;;;9.00;5.00;;;;;;;17.68;73.99;100783.72;4970706;28;105857;-65
2021/08/24 09:52:52;;;;;;;11.25;5.30;;;;;;;17.79;74.31;100779.63;4970300;28;106236;-65
2021/08/24 09:55:23;;;;;;;10.55;5.38;;;;;;;18.04;74.18;100782.59;4971167;28;105701;-67
2021/08/24 09:58:05;;;;;;;9.35;4.40;;;;;;;18.43;73.90;100783.66;4970835;28;106225;-65
2021/08/24 10:00:56;;;;;;;7.32;4.10;;;;;;;19.26;74.23;100787.72;4970678;28;105895;-65
2021/08/24 10:03:38;;;;;;;9.68;4.40;;;;;;;19.87;72.46;100786.38;4970704;28;105800;-66
2021/08/24 10:06:26;;;;;;;8.52;4.57;;;;;;;20.48;71.34;100792.19;4971132;28;105996;-66
2021/08/24 10:09:10;;;;;;;8.82;3.70;;;;;;;20.83;69.47;100794.41;4970429;28;106005;-65
2021/08/24 10:11:36;;;;;;;7.13;3.25;;;;;;;21.05;69.39;100793.97;4970325;28;105804;-68
2021/08/24 10:14:21;;;;;;;6.53;3.20;;;;;;;21.30;68.67;100793.91;4969969;28;106070;-65
2021/08/24 10:16:50;;;;;;;9.35;3.63;;;;;;;21.45;67.85;100798.94;4970426;28;105985;-66
2021/08/24 10:19:31;;;;;;;7.55;3.75;;;;;;;21.44;66.21;100792.66;4970236;28;106790;-66
2021/08/24 10:22:09;;;;;;;8.70;3.60;;;;;;;21.38;65.90;100804.44;4969176;28;106602;-66
2021/08/24 10:24:41;;;;;;;9.63;3.40;;;;;;;21.38;65.97;100798.16;4969201;28;106564;-66
2021/08/24 10:27:28;;;;;;;12.15;4.47;;;;;;;21.34;64.75;100794.25;4970454;28;105961;-64
2021/08/24 10:29:58;;;;;;;7.20;4.00;;;;;;;21.09;64.09;100798.72;4970045;28;105903;-64
2021/08/24 10:32:34;;;;;;;11.37;4.40;;;;;;;21.05;64.23;100797.53;4969758;28;106268;-65
2021/08/24 10:35:10;;;;;;;12.02;4.20;;;;;;;21.01;64.37;100806.31;4970166;28;106574;-66
2021/08/24 10:37:39;;;;;;;8.18;3.65;;;;;;;21.03;63.69;100802.31;4970368;28;105756;-66
2021/08/24 10:40:08;;;;;;;6.60;2.90;;;;;;;21.00;62.92;100799.25;4969196;28;106630;-65
2021/08/24 10:42:36;;;;;;;4.65;2.33;;;;;;;20.81;62.62;100801.94;4969345;28;106336;-64
2021/08/24 10:45:24;;;;;;;6.35;2.40;;;;;;;20.66;62.75;100798.72;4968799;28;106015;-67
2021/08/24 10:47:52;;;;;;;7.38;2.33;;;;;;;20.55;62.45;100809.19;4969585;28;106666;-68
2021/08/24 10:50:24;;;;;;;6.13;2.20;;;;;;;20.52;62.56;100811.53;4969801;28;106136;-67
2021/08/24 10:53:06;;;;;;;4.97;2.30;;;;;;;20.61;62.38;100813.75;4968873;28;106247;-64
2021/08/24 10:55:41;;;;;;;5.45;2.88;;;;;;;20.77;62.23;100811.53;4969533;28;105819;-64
2021/08/24 10:58:31;;;;;;;7.85;2.42;;;;;;;20.86;61.50;100815.63;4969660;28;106196;-65
2021/08/24 11:01:00;;;;;;;7.05;2.38;;;;;;;21.00;61.14;100810.09;4970024;28;105998;-65
2021/08/24 11:03:42;;;;;;;4.88;2.50;;;;;;;21.13;60.70;100810.75;4969320;28;106133;-66
2021/08/24 11:06:28;;;;;;;7.13;3.15;;;;;;;21.37;61.12;100815.50;4968991;28;106443;-64
2021/08/24 11:09:28;;;;;;;5.28;2.65;;;;;;;21.55;60.45;100812.78;4969311;28;106084;-64
2021/08/24 11:12:09;;;;;;;5.93;2.47;;;;;;;21.70;59.09;100811.56;4969158;28;105879;-65
2021/08/24 11:14:50;;;;;;;9.48;2.45;;;;;;;21.77;58.95;100815.00;4968848;28;106341;-64
2021/08/24 11:17:44;;;;;;;4.22;2.30;;;;;;;21.86;58.50;100816.34;4968866;28;106083;-65
2021/08/24 11:20:20;;;;;;;5.03;1.95;;;;;;;21.88;58.02;100819.66;4969375;28;105767;-70
2021/08/24 11:23:07;;;;;;;6.75;2.25;;;;;;;21.92;57.17;100826.25;4969425;28;105953;-65
2021/08/24 11:25:47;;;;;;;7.82;1.88;;;;;;;21.99;56.89;100831.59;4968967;28;106088;-65
2021/08/24 11:28:38;;;;;;;5.45;1.90;;;;;;;21.89;55.61;100834.06;4967409;28;106256;-66
2021/08/24 11:31:19;;;;;;;6.65;2.00;;;;;;;22.02;55.45;100833.03;4968748;28;105909;-66
2021/08/24 11:33:55;;;;;;;9.07;2.05;;;;;;;22.40;54.91;100831.88;4969358;28;105853;-65
2021/08/24 11:36:42;;;;;;;4.22;1.83;;;;;;;23.10;54.17;100833.78;4968619;28;106584;-67
2021/08/24 11:39:30;;;;;;;10.18;2.30;;;;;;;24.01;53.89;100842.44;4968458;28;105976;-65
2021/08/24 11:42:01;;;;;;;5.53;1.88;;;;;;;24.73;52.06;100836.34;4969271;28;105778;-65
2021/08/24 11:44:40;;;;;;;4.82;2.65;;;;;;;25.45;50.63;100840.06;4968649;28;106096;-66
2021/08/24 11:47:12;;;;;;;4.40;2.00;;;;;;;26.20;47.92;100834.06;4968514;28;107977;-65
2021/08/24 11:49:56;;;;;;;6.38;1.80;;;;;;;26.78;46.95;100838.94;4968445;28;105965;-64
2021/08/24 11:52:34;;;;;;;3.50;1.67;;;;;;;27.18;45.52;100845.72;4969469;28;105984;-64
2021/08/24 11:55:06;;;;;;;3.67;1.50;;;;;;;27.51;43.74;100849.16;4968626;28;105911;-65
2021/08/24 11:57:37;;;;;;;4.00;1.80;;;;;;;27.91;41.54;100855.03;4968821;28;105931;-65
2021/08/24 12:00:05;;;;;;;5.15;1.58;;;;;;;28.18;41.05;100849.34;4968440;28;105946;-64
2021/08/24 12:02:37;;;;;;;5.97;1.30;;;;;;;28.56;39.69;100844.44;4968946;28;105916;-65
2021/08/24 12:05:11;;;;;;;3.88;1.42;;;;;;;28.88;39.09;100843.31;4968624;28;106153;-65
2021/08/24 12:07:40;;;;;;;2.38;1.35;;;;;;;29.22;37.85;100842.66;4968735;28;105891;-65
2021/08/24 12:10:22;;;;;;;3.53;1.50;;;;;;;29.76;37.29;100838.34;4968006;28;106023;-65
2021/08/24 12:12:53;;;;;;;4.35;1.60;;;;;;;29.93;35.37;100854.44;4969169;28;106059;-65
2021/08/24 12:15:44;;;;;;;8.57;2.03;;;;;;;29.89;34.63;100845.16;4968617;28;106156;-65
2021/08/24 12:18:23;;;;;;;2.83;1.30;;;;;;;30.00;34.21;100841.22;4968006;28;105789;-65
2021/08/24 12:20:59;;;;;;;3.47;1.30;;;;;;;29.84;33.83;100850.63;4968651;28;106155;-65
2021/08/24 12:23:40;;;;;;;4.72;1.48;;;;;;;29.86;32.98;100859.44;4968995;28;106301;-65
2021/08/24 12:26:22;;;;;;;4.07;1.50;;;;;;;29.81;32.50;100854.78;4967997;28;106343;-65
2021/08/24 12:28:48;;;;;;;3.55;1.65;;;;;;;29.93;32.41;100848.16;4967918;28;105907;-64
2021/08/24 12:31:24;;;;;;;3.50;1.48;;;;;;;29.95;32.06;100846.75;4967645;28;106193;-65
2021/08/24 12:33:49;;;;;;;4.53;1.45;;;;;;;29.30;31.04;100846.78;4968686;28;105884;-64
2021/08/24 12:36:40;;;;;;;3.35;1.80;;;;;;;28.44;32.05;100857.59;4968358;28;106189;-65
2021/08/24 12:39:46;;;;;;;3.72;1.58;;;;;;;28.67;32.60;100845.28;4964556;28;106833;-65
2021/08/24 12:42:34;;;;;;;3.22;1.20;;;;;;;28.33;32.66;100854.84;4949393;28;106222;-67
2021/08/24 12:44:59;;;;;;;5.28;1.33;;;;;;;27.99;33.18;100863.53;4968152;28;105938;-66
2021/08/24 12:47:28;;;;;;;4.88;1.95;;;;;;;27.70;33.45;100860.47;4968377;28;106180;-68
2021/08/24 12:49:54;;;;;;;3.53;1.30;;;;;;;27.64;32.93;100867.84;4967129;28;106106;-66
2021/08/24 12:52:20;;;;;;;2.72;1.10;;;;;;;27.84;32.73;100861.59;4967573;28;105964;-68
2021/08/24 12:54:45;;;;;;;3.53;1.50;;;;;;;27.98;32.57;100850.94;4968262;28;105975;-65
2021/08/24 12:57:33;;;;;;;3.55;1.10;;;;;;;28.16;32.30;100857.84;4967408;28;105912;-65
2021/08/24 13:00:28;;;;;;;4.07;1.20;;;;;;;27.79;32.04;100860.75;4966910;28;106106;-64
2021/08/24 13:02:58;;;;;;;3.40;1.30;;;;;;;27.48;32.43;100868.88;4965601;28;106197;-63
2021/08/24 13:05:28;;;;;;;5.00;1.50;;;;;;;27.10;32.32;100860.69;4969244;28;106132;-65
2021/08/24 13:08:11;;;;;;;3.65;1.60;;;;;;;26.78;32.74;100858.06;4971299;28;105780;-64
2021/08/24 13:10:46;;;;;;;3.70;1.23;;;;;;;26.71;33.33;100858.28;4970550;28;105824;-65
2021/08/24 13:13:35;;;;;;;5.03;1.52;;;;;;;26.75;33.08;100853.94;4983443;28;106022;-66
2021/08/24 13:16:11;;;;;;;4.78;1.20;;;;;;;27.05;32.36;100854.38;4991104;28;106154;-66
2021/08/24 13:18:44;;;;;;;6.25;1.55;;;;;;;27.34;32.32;100854.81;4991267;28;106295;-67
2021/08/24 13:21:39;;;;;;;3.53;1.35;;;;;;;27.19;31.75;100863.78;4990609;28;106200;-66
2021/08/24 13:24:18;;;;;;;4.47;1.23;;;;;;;26.66;32.23;100864.50;4990205;28;105891;-65
2021/08/24 13:26:54;;;;;;;6.95;1.92;;;;;;;26.31;32.67;100863.13;4989910;28;106160;-64
2021/08/24 13:29:23;;;;;;;4.10;1.13;;;;;;;26.42;33.06;100864.03;4990615;28;105941;-64
2021/08/24 13:31:56;;;;;;;3.38;1.25;;;;;;;26.66;33.01;100863.69;4989993;28;105993;-64
2021/08/24 13:34:47;;;;;;;7.60;1.92;;;;;;;26.66;32.63;100863.69;4990797;28;105740;-64
2021/08/24 13:37:30;;;;;;;5.43;1.20;;;;;;;26.65;32.62;100856.56;4990799;28;106051;-63
2021/08/24 13:39:58;;;;;;;2.88;1.50;;;;;;;26.60;32.87;100853.78;4990486;28;106029;-64
2021/08/24 13:42:24;;;;;;;2.83;1.30;;;;;;;26.51;32.90;100856.19;4990761;28;105863;-65
2021/08/24 13:44:50;;;;;;;5.00;1.55;;;;;;;26.48;32.73;100851.25;4989707;28;106177;-66
2021/08/24 13:47:21;;;;;;;1.98;0.98;;;;;;;26.34;32.51;100848.09;4991140;28;105901;-66
2021/08/24 13:49:54;;;;;;;3.65;0.90;;;;;;;26.12;32.63;100848.19;4990511;28;106420;-65
2021/08/24 13:52:39;;;;;;;3.30;1.05;;;;;;;25.83;32.52;100853.88;4989608;28;106004;-64
2021/08/24 13:55:38;;;;;;;3.33;1.58;;;;;;;25.73;33.03;100862.75;4990388;28;105774;-65
2021/08/24 13:58:33;;;;;;;2.33;1.13;;;;;;;25.53;32.72;100857.88;4978377;28;106134;-65
2021/08/24 14:01:25;;;;;;;4.13;1.10;;;;;;;25.33;33.18;100851.09;4990846;28;105987;-65
2021/08/24 14:03:54;;;;;;;3.83;1.10;;;;;;;25.18;33.66;100851.69;4989546;28;105930;-63
2021/08/24 14:06:28;;;;;;;;;;;;;;;25.11;33.19;100853.78;4990471;28;105933;-64
2021/08/24 14:08:55;;;;;;;2.05;1.20;;;;;;;24.96;33.66;100857.13;4991086;28;105999;-64
2021/08/24 14:11:22;;;;;;;6.43;1.40;;;;;;;24.74;33.88;100856.22;4989871;28;106084;-65
2021/08/24 14:13:49;;;;;;;3.80;1.20;;;;;;;24.54;34.62;100854.78;4989556;28;105851;-65
2021/08/24 14:16:25;;;;;;;3.75;1.30;;;;;;;24.45;34.75;100856.28;4989272;28;105848;-65
